Time;durP1;ratioP1;P1;durP2;ratioP2;P2;SDS_P1;SDS_P2;PMS_P1;PMS_P2;Temp;Humidity;BMP_temperature;BMP_pressure;BME280_temperature;BME280_humidity;BME280_pressure;Samples;Min_cycle;Max_cycle;Signal;HPM_P1;HPM_P2
2021/06/18 00:00:31;;;;;;;11.45;9.75;;;;;;;16.18;69.35;96557.84;3593293;40;20437;-56
2021/06/18 00:02:58;;;;;;;12.13;9.73;;;;;;;16.12;68.80;96549.06;3584394;40;20048;-55
2021/06/18 00:05:26;;;;;;;11.20;10.18;;;;;;;16.09;69.19;96551.47;3584235;40;20048;-55
2021/06/18 00:07:54;;;;;;;10.02;9.13;;;;;;;16.03;69.96;96552.59;3593709;40;20048;-55
2021/06/18 00:10:25;;;;;;;11.43;10.43;;;;;;;15.97;69.72;96536.66;3593730;40;20050;-55
2021/06/18 00:12:53;;;;;;;11.15;9.98;;;;;;;15.92;70.08;96547.34;3592942;40;20050;-55
2021/06/18 00:15:21;;;;;;;12.38;9.85;;;;;;;15.82;70.01;96536.69;3593719;40;20056;-55
2021/06/18 00:17:50;;;;;;;12.15;10.98;;;;;;;15.84;69.88;96545.19;3584522;39;20054;-56
2021/06/18 00:20:18;;;;;;;10.90;9.82;;;;;;;15.86;70.40;96550.28;3584147;40;20058;-56
2021/06/18 00:22:46;;;;;;;11.50;10.10;;;;;;;15.79;70.68;96537.25;3584303;40;20043;-55
2021/06/18 00:25:14;;;;;;;10.75;9.63;;;;;;;15.80;70.63;96546.84;3576172;40;20048;-55
2021/06/18 00:27:43;;;;;;;10.82;9.85;;;;;;;15.75;70.61;96549.50;3575175;40;20062;-55
2021/06/18 00:30:11;;;;;;;11.23;10.13;;;;;;;15.68;71.70;96552.47;3583677;40;20044;-56
2021/06/18 00:32:40;;;;;;;12.68;10.75;;;;;;;15.62;71.48;96548.25;3583945;40;20327;-56
2021/06/18 00:35:08;;;;;;;11.98;10.48;;;;;;;15.59;71.19;96544.25;3593562;40;20074;-55
2021/06/18 00:37:36;;;;;;;14.32;10.35;;;;;;;15.59;71.00;96546.13;3576010;40;20050;-55
2021/06/18 00:40:05;;;;;;;10.15;9.35;;;;;;;15.60;71.24;96543.19;3592646;40;20405;-56
2021/06/18 00:42:33;;;;;;;12.07;10.85;;;;;;;15.57;71.13;96545.59;3576036;40;20044;-55
2021/06/18 00:45:01;;;;;;;12.20;11.00;;;;;;;15.48;71.67;96543.50;3593897;40;20080;-55
2021/06/18 00:47:29;;;;;;;11.38;10.38;;;;;;;15.43;71.59;96543.50;3584484;40;20051;-55
2021/06/18 00:49:57;;;;;;;13.30;12.02;;;;;;;15.42;72.07;96541.91;3593151;40;20032;-56
2021/06/18 00:52:25;;;;;;;12.18;10.93;;;;;;;15.42;72.19;96533.16;3592959;40;20048;-55
2021/06/18 00:54:53;;;;;;;11.88;10.80;;;;;;;15.44;71.56;96539.00;3592875;40;20099;-55
2021/06/18 00:57:21;;;;;;;12.98;11.70;;;;;;;15.36;72.31;96530.50;3582200;40;20352;-55
2021/06/18 00:59:48;;;;;;;11.82;10.77;;;;;;;15.31;72.54;96535.03;3581839;40;20320;-55
2021/06/18 01:02:16;;;;;;;13.23;10.40;;;;;;;15.28;72.33;96536.38;3583803;40;20063;-56
2021/06/18 01:04:45;;;;;;;13.68;10.43;;;;;;;15.26;71.92;96532.41;3582850;40;20457;-55
2021/06/18 01:07:32;;;;;;;12.23;11.02;;;;;;;15.24;72.37;96534.53;3580933;40;20512;-55
2021/06/18 01:10:13;;;;;;;11.82;10.63;;;;;;;15.20;72.61;96534.28;3582366;40;20041;-55
2021/06/18 01:12:58;;;;;;;12.45;11.23;;;;;;;15.12;72.97;96527.66;3572901;40;20050;-55
2021/06/18 01:15:31;;;;;;;12.07;10.88;;;;;;;15.13;73.09;96536.41;3581058;40;20041;-56
2021/06/18 01:18:11;;;;;;;12.45;11.30;;;;;;;15.12;72.80;96534.81;3582270;40;20056;-55
2021/06/18 01:20:59;;;;;;;11.85;10.80;;;;;;;15.11;72.75;96538.53;3582807;40;20082;-55
2021/06/18 01:23:30;;;;;;;13.13;11.93;;;;;;;15.02;73.01;96541.75;3583302;40;20052;-56
2021/06/18 01:26:31;;;;;;;12.43;11.23;;;;;;;14.93;74.13;96547.88;3583218;40;20592;-55
2021/06/18 01:29:02;;;;;;;12.60;11.27;;;;;;;14.89;73.77;96537.00;3583010;40;20044;-56
2021/06/18 01:31:41;;;;;;;12.98;11.35;;;;;;;14.92;73.96;96544.44;3583110;40;20056;-56
2021/06/18 01:34:15;;;;;;;12.98;11.65;;;;;;;14.86;74.42;96540.19;3573791;40;20057;-56
2021/06/18 01:36:46;;;;;;;13.00;11.63;;;;;;;14.81;73.56;96540.97;3573341;40;20070;-55
2021/06/18 01:39:16;;;;;;;12.00;10.60;;;;;;;14.81;74.36;96533.03;3582085;40;20305;-55
2021/06/18 01:41:49;;;;;;;12.57;11.48;;;;;;;14.81;74.15;96540.19;3574469;40;20320;-55
2021/06/18 01:44:19;;;;;;;12.30;11.10;;;;;;;14.77;74.13;96534.59;3575002;40;20090;-55
2021/06/18 01:46:48;;;;;;;12.93;11.70;;;;;;;14.75;74.50;96534.09;3584497;40;20076;-55
2021/06/18 01:49:17;;;;;;;11.98;10.85;;;;;;;14.77;74.20;96534.59;3585137;40;20053;-55
2021/06/18 01:51:48;;;;;;;12.77;11.57;;;;;;;14.73;74.58;96529.03;3583526;40;20056;-55
2021/06/18 01:54:17;;;;;;;12.50;11.07;;;;;;;14.75;74.04;96534.88;3584467;40;20052;-57
2021/06/18 01:56:46;;;;;;;14.25;12.70;;;;;;;14.74;74.45;96525.31;3567599;40;20045;-55
2021/06/18 01:59:14;;;;;;;14.25;11.38;;;;;;;14.72;74.60;96526.66;3585969;40;20048;-55
2021/06/18 02:01:45;;;;;;;13.43;11.95;;;;;;;14.69;74.04;96533.31;3566396;40;20032;-55
2021/06/18 02:04:15;;;;;;;14.00;12.70;;;;;;;14.65;74.02;96545.47;3595424;40;20063;-55
2021/06/18 02:06:45;;;;;;;13.13;11.68;;;;;;;14.61;74.81;96542.56;3594839;40;20087;-55
2021/06/18 02:09:16;;;;;;;16.35;12.82;;;;;;;14.60;74.84;96550.78;3576884;40;20042;-55
2021/06/18 02:11:45;;;;;;;14.07;11.52;;;;;;;14.59;74.47;96546.53;3585290;39;20477;-55
2021/06/18 02:14:17;;;;;;;13.18;11.38;;;;;;;14.57;74.41;96546.81;3594466;40;20054;-55
2021/06/18 02:16:51;;;;;;;12.45;11.27;;;;;;;14.55;74.35;96535.66;3594588;40;20048;-57
2021/06/18 02:19:21;;;;;;;12.18;10.52;;;;;;;14.54;75.02;96546.53;3584721;40;20044;-57
2021/06/18 02:21:51;;;;;;;11.77;10.73;;;;;;;14.50;74.38;96543.63;3584713;40;20047;-57
2021/06/18 02:24:22;;;;;;;12.18;11.05;;;;;;;14.46;74.59;96550.53;3592665;40;20048;-57
2021/06/18 02:26:49;;;;;;;13.60;12.20;;;;;;;14.42;74.78;96550.25;3593317;39;20303;-58
2021/06/18 02:29:17;;;;;;;13.38;11.38;;;;;;;14.39;74.61;96557.97;3593583;40;20060;-55
2021/06/18 02:31:47;;;;;;;14.18;12.77;;;;;;;14.35;75.26;96554.22;3594321;40;20454;-57
2021/06/18 02:34:15;;;;;;;13.32;11.93;;;;;;;14.33;75.88;96554.50;3594476;39;20047;-55
2021/06/18 02:36:43;;;;;;;12.98;11.60;;;;;;;14.32;75.39;96557.41;3593825;40;20048;-55
2021/06/18 02:39:12;;;;;;;13.55;12.35;;;;;;;14.30;74.97;96561.13;3584545;40;20040;-55
2021/06/18 02:41:41;;;;;;;14.73;11.60;;;;;;;14.30;75.55;96568.28;3575703;40;20058;-55
2021/06/18 02:44:09;;;;;;;13.55;12.25;;;;;;;14.27;75.11;96574.13;3584806;40;20426;-55
2021/06/18 02:46:54;;;;;;;13.75;12.32;;;;;;;14.24;75.07;96577.28;3576182;40;20056;-55
2021/06/18 02:49:32;;;;;;;14.80;12.55;;;;;;;14.23;75.64;96581.81;3593143;40;20331;-55
2021/06/18 02:52:08;;;;;;;13.65;12.15;;;;;;;14.25;75.76;96578.88;3575137;40;20067;-57
2021/06/18 02:54:46;;;;;;;14.63;11.57;;;;;;;14.22;75.40;96576.75;3584460;40;20636;-57
2021/06/18 02:57:21;;;;;;;13.05;11.75;;;;;;;14.20;75.38;96574.38;3585167;40;20038;-57
2021/06/18 02:59:52;;;;;;;14.63;12.40;;;;;;;14.17;75.85;96569.59;3576078;40;20463;-57
2021/06/18 03:02:20;;;;;;;13.23;11.43;;;;;;;14.15;75.48;96572.50;3594411;40;20058;-55
2021/06/18 03:04:49;;;;;;;14.30;12.82;;;;;;;14.17;75.93;96566.16;3576390;40;20410;-55
2021/06/18 03:07:24;;;;;;;14.77;13.30;;;;;;;14.17;75.26;96563.50;3575563;40;20267;-55
2021/06/18 03:09:54;;;;;;;14.73;13.18;;;;;;;14.17;76.00;96563.50;3594586;40;20047;-55
2021/06/18 03:12:24;;;;;;;13.73;12.32;;;;;;;14.18;75.59;96565.09;3594431;40;20092;-55
2021/06/18 03:14:56;;;;;;;14.45;12.48;;;;;;;14.20;75.82;96568.28;3593248;40;20055;-55
2021/06/18 03:17:24;;;;;;;15.15;12.52;;;;;;;14.22;75.14;96564.31;3594464;40;20048;-55
2021/06/18 03:19:58;;;;;;;14.30;12.75;;;;;;;14.27;75.25;96572.28;3576784;40;20044;-55
2021/06/18 03:22:27;;;;;;;13.48;11.52;;;;;;;14.31;75.50;96569.88;3584632;39;20059;-55
2021/06/18 03:24:55;;;;;;;17.42;13.48;;;;;;;14.35;75.28;96570.94;3592832;40;20225;-56
2021/06/18 03:27:24;;;;;;;15.77;13.68;;;;;;;14.38;74.47;96575.72;3593739;40;20056;-56
2021/06/18 03:29:53;;;;;;;16.65;13.18;;;;;;;14.46;74.77;96572.53;3576411;40;20077;-55
2021/06/18 03:32:23;;;;;;;16.65;13.45;;;;;;;15.29;72.26;96569.06;3594346;40;20062;-55
2021/06/18 03:34:51;;;;;;;14.60;12.77;;;;;;;16.25;69.06;96576.13;3576212;40;20061;-55
2021/06/18 03:37:19;;;;;;;13.05;11.57;;;;;;;16.97;65.37;96580.16;3593862;40;20050;-55
2021/06/18 03:39:48;;;;;;;11.27;10.20;;;;;;;17.52;63.38;96585.22;3593838;40;20063;-55
2021/06/18 03:42:16;;;;;;;11.13;9.18;;;;;;;18.07;61.92;96584.84;3576948;40;20050;-55
2021/06/18 03:44:45;;;;;;;11.77;10.65;;;;;;;18.38;59.76;96583.63;3592790;40;20230;-55
2021/06/18 03:47:14;;;;;;;12.13;9.82;;;;;;;18.85;58.56;96586.41;3593674;39;20370;-55
2021/06/18 03:49:45;;;;;;;10.65;9.65;;;;;;;19.29;58.29;96589.69;3592557;39;20054;-56
2021/06/18 03:52:12;;;;;;;9.93;8.82;;;;;;;19.73;57.00;96582.19;3592858;40;20060;-56
2021/06/18 03:54:42;;;;;;;10.32;9.30;;;;;;;20.19;55.67;96585.78;3592334;40;20058;-55
2021/06/18 03:57:13;;;;;;;10.55;9.55;;;;;;;20.64;54.49;96588.56;3584480;40;20044;-56
2021/06/18 03:59:42;;;;;;;9.95;9.05;;;;;;;20.96;52.62;96588.63;3584382;39;20416;-56
2021/06/18 04:02:13;;;;;;;10.85;9.73;;;;;;;21.18;51.70;96588.59;3593533;39;20597;-56
2021/06/18 04:04:42;;;;;;;12.05;10.10;;;;;;;21.38;51.86;96591.06;3592843;39;20081;-56
2021/06/18 04:07:11;;;;;;;9.80;8.57;;;;;;;21.63;49.90;96584.22;3584637;40;20060;-56
2021/06/18 04:09:39;;;;;;;13.73;9.88;;;;;;;21.75;50.56;96587.09;3575692;40;20335;-56
2021/06/18 04:12:09;;;;;;;10.35;9.35;;;;;;;22.02;50.26;96596.03;3594052;40;20052;-56
2021/06/18 04:14:37;;;;;;;10.15;8.98;;;;;;;22.19;50.25;96597.16;3593727;40;20058;-56
2021/06/18 04:17:07;;;;;;;22.27;10.00;;;;;;;22.55;49.00;96596.09;3592998;40;20056;-56
2021/06/18 04:19:37;;;;;;;9.90;9.00;;;;;;;22.80;48.97;96596.41;3593528;40;20044;-56
2021/06/18 04:22:05;;;;;;;12.15;9.57;;;;;;;22.94;47.67;96588.94;3594284;40;20091;-56
2021/06/18 04:24:33;;;;;;;11.13;8.95;;;;;;;22.86;47.38;96589.72;3584532;40;20044;-56
2021/06/18 04:27:01;;;;;;;12.57;9.70;;;;;;;23.23;47.47;96592.84;3583562;40;20081;-56
2021/06/18 04:29:29;;;;;;;9.50;8.43;;;;;;;23.74;45.17;96595.69;3584238;39;20401;-56
2021/06/18 04:31:57;;;;;;;14.35;8.23;;;;;;;24.02;44.96;96600.59;3583790;40;20415;-56
2021/06/18 04:34:24;;;;;;;9.63;7.78;;;;;;;24.22;43.53;96588.28;3593782;39;20048;-56
2021/06/18 04:36:52;;;;;;;19.08;10.32;;;;;;;24.22;44.17;96588.28;3584200;40;20044;-56
2021/06/18 04:39:20;;;;;;;19.02;10.10;;;;;;;24.20;43.96;96590.50;3593877;40;20062;-56
2021/06/18 04:41:47;;;;;;;13.82;9.80;;;;;;;24.19;44.27;96586.22;3593641;40;20052;-56
2021/06/18 04:44:15;;;;;;;13.95;10.40;;;;;;;24.24;44.37;96585.25;3593720;40;20060;-56
2021/06/18 04:46:43;;;;;;;15.63;10.30;;;;;;;24.32;44.78;96588.97;3575285;40;20048;-56
2021/06/18 04:49:10;;;;;;;15.43;10.98;;;;;;;24.21;45.11;96580.53;3593783;40;20048;-56
2021/06/18 04:51:40;;;;;;;27.98;13.07;;;;;;;24.11;45.14;96587.06;3592643;40;20052;-56
2021/06/18 04:54:09;;;;;;;17.20;11.45;;;;;;;23.77;45.50;96588.84;3593428;40;20048;-56
2021/06/18 04:56:39;;;;;;;16.88;10.65;;;;;;;23.55;46.10;96587.19;3593708;40;20078;-57
2021/06/18 04:59:07;;;;;;;12.23;9.85;;;;;;;23.33;46.49;96589.03;3592412;40;20047;-56
2021/06/18 05:01:35;;;;;;;11.25;10.07;;;;;;;23.64;45.53;96591.44;3582987;40;20037;-56
2021/06/18 05:04:02;;;;;;;15.30;10.35;;;;;;;24.09;44.55;96583.91;3575885;40;20044;-56
2021/06/18 05:06:30;;;;;;;16.60;11.20;;;;;;;24.20;44.67;96579.72;3592211;40;20606;-56
2021/06/18 05:08:58;;;;;;;12.70;11.48;;;;;;;24.39;44.57;96581.19;3582753;40;20070;-56
2021/06/18 05:11:25;;;;;;;18.17;12.40;;;;;;;24.76;43.54;96578.66;3592304;40;20230;-56
2021/06/18 05:13:53;;;;;;;21.48;12.10;;;;;;;24.60;44.03;96580.38;3591293;39;20387;-56
2021/06/18 05:16:20;;;;;;;17.25;12.27;;;;;;;24.18;45.24;96589.25;3585206;40;20066;-56
2021/06/18 05:18:48;;;;;;;19.50;11.75;;;;;;;23.69;46.54;96595.84;3594690;40;20059;-56
2021/06/18 05:21:16;;;;;;;20.38;13.63;;;;;;;23.25;46.80;96587.16;3576265;40;20344;-56
2021/06/18 05:23:44;;;;;;;17.25;13.38;;;;;;;22.82;48.15;96584.22;3585059;40;20142;-56
2021/06/18 05:26:11;;;;;;;23.13;12.77;;;;;;;22.55;48.56;96588.03;3585445;40;20048;-56
2021/06/18 05:28:39;;;;;;;20.23;13.43;;;;;;;22.16;49.15;96585.13;3585177;40;20044;-56
2021/06/18 05:31:10;;;;;;;19.92;13.45;;;;;;;21.97;51.00;96588.09;3593561;40;20161;-55
2021/06/18 05:33:38;;;;;;;21.98;13.93;;;;;;;21.76;50.99;96587.91;3593727;40;20048;-56
2021/06/18 05:36:06;;;;;;;25.50;14.63;;;;;;;21.57;51.57;96586.22;3584091;40;20077;-56
2021/06/18 05:38:34;;;;;;;23.02;13.70;;;;;;;21.42;51.18;96589.31;3585158;40;20328;-56
2021/06/18 05:41:02;;;;;;;27.42;15.50;;;;;;;21.25;52.29;96584.66;3594598;39;20054;-56
2021/06/18 05:43:30;;;;;;;27.95;14.43;;;;;;;21.04;53.22;96590.56;3594572;39;20044;-55
2021/06/18 05:45:57;;;;;;;24.08;15.65;;;;;;;20.87;53.10;96580.53;3576258;40;20069;-55
2021/06/18 05:48:25;;;;;;;21.52;13.68;;;;;;;20.87;53.73;96580.53;3594848;40;20092;-55
2021/06/18 05:50:53;;;;;;;20.90;13.50;;;;;;;20.64;54.09;96593.09;3593964;40;20105;-55
2021/06/18 05:53:21;;;;;;;29.50;14.45;;;;;;;20.56;54.25;96587.38;3584295;40;20044;-55
2021/06/18 05:55:49;;;;;;;15.40;12.88;;;;;;;20.70;54.23;96583.84;3594630;40;20032;-55
2021/06/18 05:58:17;;;;;;;20.40;12.88;;;;;;;20.62;54.68;96582.69;3594389;39;20051;-55
2021/06/18 06:00:45;;;;;;;20.90;14.40;;;;;;;20.57;54.74;96580.13;3594663;40;20095;-55
2021/06/18 06:03:14;;;;;;;19.25;15.27;;;;;;;20.59;55.55;96578.75;3584864;40;20054;-55
2021/06/18 06:05:41;;;;;;;24.85;13.40;;;;;;;20.61;56.06;96578.44;3594022;40;20051;-55
2021/06/18 06:08:10;;;;;;;20.20;13.20;;;;;;;20.64;55.23;96583.19;3584968;40;20091;-56
2021/06/18 06:10:50;;;;;;;18.97;13.17;;;;;;;20.74;54.40;96580.28;3575311;40;20397;-56
2021/06/18 06:13:19;;;;;;;16.13;12.25;;;;;;;20.82;52.78;96577.97;3593154;40;20048;-55
2021/06/18 06:15:48;;;;;;;20.27;12.55;;;;;;;20.84;53.50;96571.22;3592722;39;20331;-55
2021/06/18 06:18:16;;;;;;;16.15;11.60;;;;;;;21.00;53.94;96568.94;3585144;40;20093;-55
2021/06/18 06:20:45;;;;;;;21.17;11.95;;;;;;;21.18;53.85;96572.50;3576392;40;20300;-55
2021/06/18 06:23:13;;;;;;;14.55;11.50;;;;;;;21.35;52.79;96579.06;3593109;39;20056;-64
2021/06/18 06:25:41;;;;;;;13.82;11.60;;;;;;;21.45;53.08;96584.16;3594298;39;20044;-55
2021/06/18 06:28:09;;;;;;;16.35;12.05;;;;;;;21.54;52.79;96578.78;3593001;39;20045;-55
2021/06/18 06:30:37;;;;;;;21.33;12.30;;;;;;;21.59;52.53;96567.16;3594214;39;20054;-57
2021/06/18 06:33:05;;;;;;;16.65;12.82;;;;;;;21.60;52.94;96568.75;3594367;40;20054;-55
2021/06/18 06:35:33;;;;;;;15.63;11.68;;;;;;;21.75;51.81;96575.59;3585215;39;20054;-55
2021/06/18 06:38:01;;;;;;;13.93;11.13;;;;;;;21.80;51.84;96572.75;3576377;40;20056;-55
2021/06/18 06:40:28;;;;;;;13.00;11.75;;;;;;;21.77;51.86;96563.41;3594629;39;20343;-55
2021/06/18 06:42:56;;;;;;;14.65;11.02;;;;;;;21.95;51.08;96568.84;3576529;40;20070;-56
2021/06/18 06:45:24;;;;;;;13.80;10.55;;;;;;;22.10;51.57;96565.69;3575448;40;20047;-56
2021/06/18 06:47:51;;;;;;;18.95;10.60;;;;;;;21.90;50.25;96558.22;3575210;40;20325;-55
2021/06/18 06:50:19;;;;;;;13.13;10.40;;;;;;;21.88;50.89;96553.19;3593775;40;20072;-56
2021/06/18 06:52:47;;;;;;;13.82;10.77;;;;;;;22.07;50.63;96542.16;3593558;40;20052;-55
2021/06/18 06:55:15;;;;;;;14.30;11.88;;;;;;;21.98;50.55;96552.06;3584858;40;20044;-55
2021/06/18 06:57:43;;;;;;;14.43;10.77;;;;;;;22.03;51.02;96543.09;3582595;40;20037;-56
2021/06/18 07:00:11;;;;;;;14.07;10.90;;;;;;;22.00;50.77;96549.88;3594192;40;20060;-55
2021/06/18 07:02:39;;;;;;;14.15;10.73;;;;;;;22.05;50.89;96541.66;3594404;40;20070;-56
2021/06/18 07:05:08;;;;;;;16.25;11.27;;;;;;;22.11;51.73;96540.41;3584506;40;20074;-55
2021/06/18 07:07:36;;;;;;;14.32;10.68;;;;;;;22.07;51.15;96544.84;3576177;40;20084;-56
2021/06/18 07:10:05;;;;;;;12.02;10.82;;;;;;;22.06;51.83;96535.19;3584572;40;20054;-55
2021/06/18 07:12:34;;;;;;;13.20;10.23;;;;;;;22.10;51.20;96538.03;3585082;40;20051;-55
2021/06/18 07:15:02;;;;;;;19.80;12.27;;;;;;;22.24;51.10;96540.56;3594070;40;20044;-55
2021/06/18 07:17:30;;;;;;;16.02;11.93;;;;;;;22.35;51.15;96536.44;3593117;40;20062;-57
2021/06/18 07:20:01;;;;;;;17.35;11.80;;;;;;;22.44;51.47;96533.00;3584101;40;20176;-55
2021/06/18 07:22:30;;;;;;;17.42;11.25;;;;;;;22.48;51.36;96533.94;3584349;40;20105;-57
2021/06/18 07:24:58;;;;;;;17.00;11.15;;;;;;;22.70;51.21;96530.28;3584607;40;20048;-57
2021/06/18 07:27:29;;;;;;;18.65;13.32;;;;;;;22.88;50.64;96526.47;3584848;39;20048;-57
2021/06/18 07:29:56;;;;;;;20.70;12.00;;;;;;;23.00;50.35;96525.78;3594059;40;20036;-56
2021/06/18 07:32:24;;;;;;;18.60;11.57;;;;;;;23.16;50.45;96522.56;3584832;40;20066;-56
2021/06/18 07:34:52;;;;;;;17.02;10.85;;;;;;;23.34;50.74;96513.31;3584593;40;20332;-55
2021/06/18 07:37:19;;;;;;;20.70;10.70;;;;;;;23.60;49.82;96508.94;3594908;40;20054;-55
2021/06/18 07:39:48;;;;;;;21.05;9.90;;;;;;;23.75;48.24;96502.16;3594346;39;20295;-56
2021/06/18 07:42:28;;;;;;;16.02;10.32;;;;;;;23.87;48.37;96504.94;3594711;40;20308;-55
2021/06/18 07:44:56;;;;;;;15.32;10.57;;;;;;;23.94;47.42;96491.72;3593408;40;20617;-55
2021/06/18 07:47:24;;;;;;;24.45;10.70;;;;;;;24.07;47.52;96494.50;3593976;40;20044;-55
2021/06/18 07:49:52;;;;;;;15.80;10.10;;;;;;;24.18;46.82;96495.72;3593386;40;20066;-55
2021/06/18 07:52:20;;;;;;;18.60;11.25;;;;;;;24.19;45.95;96499.97;3593128;39;20063;-55
2021/06/18 07:54:51;;;;;;;10.55;8.68;;;;;;;24.26;46.27;96489.47;3584319;40;20320;-55
2021/06/18 07:57:19;;;;;;;12.60;9.57;;;;;;;24.33;45.35;96491.63;3584328;40;20031;-55
2021/06/18 07:59:46;;;;;;;14.60;8.45;;;;;;;24.45;45.54;96484.69;3581146;40;20311;-60
2021/06/18 08:02:14;;;;;;;12.15;9.68;;;;;;;24.48;44.12;96484.81;3593930;40;20058;-55
2021/06/18 08:04:52;;;;;;;14.93;8.38;;;;;;;24.53;44.05;96478.41;3584648;40;20060;-55
2021/06/18 08:07:20;;;;;;;11.45;8.75;;;;;;;24.61;43.01;96479.44;3592633;40;20048;-56
2021/06/18 08:09:49;;;;;;;14.05;8.00;;;;;;;24.55;43.41;96476.19;3593826;39;20052;-55
2021/06/18 08:12:18;;;;;;;12.88;8.55;;;;;;;24.57;44.40;96474.72;3584483;40;20065;-55
2021/06/18 08:14:47;;;;;;;8.63;7.80;;;;;;;24.73;43.51;96473.34;3593833;40;20316;-55
2021/06/18 08:17:14;;;;;;;10.68;8.13;;;;;;;24.77;43.49;96468.81;3593653;39;20056;-55
2021/06/18 08:19:42;;;;;;;8.48;7.05;;;;;;;24.96;43.56;96468.28;3593394;40;20415;-55
2021/06/18 08:22:10;;;;;;;10.73;7.70;;;;;;;25.07;41.85;96471.34;3593769;40;20139;-56
2021/06/18 08:24:39;;;;;;;14.13;7.97;;;;;;;25.10;41.20;96474.16;3584338;40;20054;-55
2021/06/18 08:27:07;;;;;;;6.95;6.35;;;;;;;25.24;40.33;96467.63;3584553;40;20056;-56
2021/06/18 08:29:35;;;;;;;7.35;6.65;;;;;;;25.24;39.33;96457.63;3584076;40;20052;-55
2021/06/18 08:32:03;;;;;;;9.00;6.28;;;;;;;25.38;39.70;96451.88;3593626;40;20105;-55
2021/06/18 08:34:31;;;;;;;7.32;6.63;;;;;;;25.54;38.46;96454.72;3571806;39;20048;-55
2021/06/18 08:36:59;;;;;;;8.20;6.88;;;;;;;25.60;37.86;96447.16;3583344;39;20060;-55
2021/06/18 08:39:27;;;;;;;6.93;6.28;;;;;;;25.73;38.82;96451.41;3592333;39;20074;-55
2021/06/18 08:41:55;;;;;;;10.68;6.82;;;;;;;25.79;37.03;96449.25;3592954;39;20056;-55
2021/06/18 08:44:26;;;;;;;8.43;6.13;;;;;;;25.79;34.70;96455.44;3592529;39;20048;-55
2021/06/18 08:46:54;;;;;;;6.70;6.15;;;;;;;25.86;36.22;96445.97;3593268;39;20434;-55
2021/06/18 08:49:22;;;;;;;8.18;6.13;;;;;;;26.06;36.25;96438.81;3593460;39;20066;-55
2021/06/18 08:51:50;;;;;;;7.28;6.28;;;;;;;26.25;36.19;96438.19;3591723;39;20048;-55
2021/06/18 08:54:18;;;;;;;9.27;6.15;;;;;;;26.33;35.30;96439.19;3583072;39;20044;-56
2021/06/18 08:56:46;;;;;;;6.30;5.70;;;;;;;26.51;35.79;96435.00;3583974;39;20058;-58
2021/06/18 08:59:14;;;;;;;5.97;5.35;;;;;;;26.64;34.22;96437.63;3584134;40;20393;-57
2021/06/18 09:01:41;;;;;;;6.22;5.63;;;;;;;26.77;33.98;96433.72;3593674;39;20044;-57
2021/06/18 09:04:09;;;;;;;6.10;5.60;;;;;;;26.84;32.60;96428.50;3592578;40;20050;-57
2021/06/18 09:06:45;;;;;;;6.15;5.50;;;;;;;26.88;34.13;96428.59;3592814;40;20081;-57
2021/06/18 09:09:12;;;;;;;8.35;5.43;;;;;;;27.05;34.32;96429.38;3582769;40;20047;-57
2021/06/18 09:11:42;;;;;;;7.20;6.45;;;;;;;27.20;33.87;96433.22;3583355;40;20393;-57
2021/06/18 09:14:24;;;;;;;7.03;5.47;;;;;;;27.28;32.69;96422.16;3593353;40;20095;-55
2021/06/18 09:17:23;;;;;;;7.43;4.80;;;;;;;27.39;31.35;96427.03;3592230;39;20048;-55
2021/06/18 09:19:53;;;;;;;5.75;5.25;;;;;;;27.22;32.55;96431.72;3583501;40;20064;-55
2021/06/18 09:22:36;;;;;;;6.32;5.70;;;;;;;27.06;32.04;96420.09;3593806;40;20052;-55
2021/06/18 09:25:13;;;;;;;6.57;5.20;;;;;;;27.24;33.41;96425.94;3575537;40;20047;-56
2021/06/18 09:27:44;;;;;;;6.03;5.50;;;;;;;27.24;32.27;96418.63;3582344;40;20045;-56
2021/06/18 09:30:23;;;;;;;6.65;4.53;;;;;;;27.23;30.27;96417.03;3576217;40;20055;-56
2021/06/18 09:33:09;;;;;;;5.20;4.80;;;;;;;27.25;29.55;96412.06;3592212;40;20601;-56
2021/06/18 09:35:56;;;;;;;5.95;5.32;;;;;;;27.45;30.97;96409.41;3574720;40;20062;-56
2021/06/18 09:38:41;;;;;;;6.25;4.80;;;;;;;27.60;28.89;96400.44;3593510;40;20044;-56
2021/06/18 09:41:28;;;;;;;6.13;5.10;;;;;;;27.67;30.05;96399.81;3592921;39;20052;-55
2021/06/18 09:44:11;;;;;;;6.25;4.85;;;;;;;27.76;29.35;96394.97;3592470;39;20108;-55
2021/06/18 09:47:04;;;;;;;4.53;4.10;;;;;;;27.67;26.02;96390.88;3583702;40;20315;-57
2021/06/18 09:49:33;;;;;;;4.35;3.95;;;;;;;27.75;26.56;96396.09;3592546;40;20044;-56
2021/06/18 09:52:02;;;;;;;4.97;4.30;;;;;;;27.66;27.00;96394.72;3582828;40;20396;-56
2021/06/18 09:54:33;;;;;;;4.30;3.70;;;;;;;27.63;26.36;96388.88;3573948;40;20658;-56
2021/06/18 09:57:10;;;;;;;4.75;4.10;;;;;;;27.67;27.19;96378.13;3582888;40;20620;-56
2021/06/18 09:59:57;;;;;;;4.40;3.95;;;;;;;27.81;26.36;96377.63;3593258;40;20063;-56
2021/06/18 10:02:52;;;;;;;4.80;4.38;;;;;;;27.95;28.05;96377.09;3593527;39;20082;-56
2021/06/18 10:05:36;;;;;;;5.57;4.95;;;;;;;27.97;26.86;96379.47;3583923;40;20040;-56
2021/06/18 10:08:05;;;;;;;5.97;4.45;;;;;;;27.96;28.23;96372.47;3568640;40;20051;-56
2021/06/18 10:10:35;;;;;;;4.35;3.95;;;;;;;27.85;27.90;96380.41;3593207;40;20055;-56
2021/06/18 10:13:03;;;;;;;5.55;4.57;;;;;;;27.99;29.35;96371.78;3594833;39;20044;-55
2021/06/18 10:15:37;;;;;;;5.63;4.20;;;;;;;28.11;30.02;96368.94;3584733;40;20052;-55
2021/06/18 10:18:10;;;;;;;4.40;4.10;;;;;;;28.14;29.29;96370.91;3594673;40;20052;-55
2021/06/18 10:20:38;;;;;;;4.72;4.32;;;;;;;28.17;28.94;96369.44;3594949;40;20523;-56
2021/06/18 10:23:10;;;;;;;5.50;5.07;;;;;;;28.22;30.30;96372.63;3585245;40;20417;-55
2021/06/18 10:25:44;;;;;;;5.15;4.75;;;;;;;28.29;30.48;96371.16;3594734;40;20052;-56
2021/06/18 10:28:25;;;;;;;5.00;4.60;;;;;;;28.29;28.96;96374.69;3585486;40;20094;-56
2021/06/18 10:30:58;;;;;;;4.80;4.43;;;;;;;28.00;29.71;96362.50;3585156;39;20044;-56
2021/06/18 10:33:25;;;;;;;6.72;5.30;;;;;;;28.02;29.77;96362.91;3584265;40;20067;-56
2021/06/18 10:36:10;;;;;;;6.35;5.75;;;;;;;28.15;29.79;96364.34;3584008;40;20610;-56
2021/06/18 10:38:40;;;;;;;6.32;5.47;;;;;;;28.24;30.35;96355.97;3585319;40;20327;-56
2021/06/18 10:41:17;;;;;;;6.57;5.97;;;;;;;28.33;30.56;96353.81;3593723;39;20050;-56
2021/06/18 10:43:50;;;;;;;5.05;4.55;;;;;;;28.49;29.67;96355.63;3594834;40;20058;-56
2021/06/18 10:46:29;;;;;;;5.70;4.95;;;;;;;28.56;30.10;96344.09;3594526;40;20058;-56
2021/06/18 10:48:59;;;;;;;5.07;4.57;;;;;;;28.68;29.44;96346.63;3594319;40;20553;-56
2021/06/18 10:51:27;;;;;;;5.80;5.15;;;;;;;28.81;30.04;96347.22;3584504;40;20048;-57
2021/06/18 10:53:55;;;;;;;6.53;5.35;;;;;;;28.76;29.06;96344.84;3569111;40;20051;-56
2021/06/18 10:56:45;;;;;;;5.15;4.65;;;;;;;28.86;29.72;96343.44;3593616;40;20044;-56
2021/06/18 10:59:34;;;;;;;5.82;4.47;;;;;;;28.87;28.68;96342.25;3574094;40;20271;-56
2021/06/18 11:02:26;;;;;;;5.38;4.88;;;;;;;28.94;27.93;96343.16;3565030;40;20041;-57
2021/06/18 11:05:16;;;;;;;4.80;4.40;;;;;;;29.00;27.87;96340.91;3572275;40;20049;-55
2021/06/18 11:07:46;;;;;;;6.18;4.60;;;;;;;29.15;29.05;96326.38;3572106;40;20220;-56
2021/06/18 11:10:27;;;;;;;5.18;4.43;;;;;;;29.28;27.08;96328.88;3572842;40;20049;-57
2021/06/18 11:13:03;;;;;;;7.05;4.65;;;;;;;29.29;26.71;96317.63;3572320;40;20095;-56
2021/06/18 11:15:31;;;;;;;5.20;4.63;;;;;;;29.24;27.24;96317.16;3573041;40;20353;-55
2021/06/18 11:18:05;;;;;;;5.40;4.47;;;;;;;29.26;27.50;96312.94;3572825;40;20071;-55
2021/06/18 11:20:32;;;;;;;5.05;4.65;;;;;;;29.34;27.62;96315.78;3564287;40;20330;-56
2021/06/18 11:23:16;;;;;;;5.57;4.57;;;;;;;29.31;27.08;96312.59;3572975;40;20045;-56
2021/06/18 11:25:51;;;;;;;5.68;4.22;;;;;;;29.38;28.57;96306.50;3574001;40;20052;-56
2021/06/18 11:28:22;;;;;;;8.93;4.70;;;;;;;29.55;28.37;96296.22;3573002;40;20055;-56
2021/06/18 11:30:53;;;;;;;5.75;5.20;;;;;;;29.66;28.60;96299.09;3572324;40;20041;-56
2021/06/18 11:33:45;;;;;;;4.70;4.30;;;;;;;29.72;27.82;96301.09;3571726;40;20051;-56
2021/06/18 11:36:17;;;;;;;6.28;5.68;;;;;;;29.76;27.04;96301.13;3581483;40;20045;-56
2021/06/18 11:38:50;;;;;;;5.30;4.80;;;;;;;29.75;27.06;96300.34;3574116;40;20314;-56